San Vicente la Barquera

latitud = 43° 23' 40''N | longitud = 004° 23' 27''W
40 metros sobre el nivel del mar | datos mensuales

Fecha, hora, temperatura, viento dirección y velocidad, humedad y presión.

  • 16-08-2018 02:00:00 | 20.00°C | Sudoeste |3.00 km/h | 89.00% | 1012.70 hPa
  • 16-08-2018 01:00:00 | 20.20°C | Sur |5.00 km/h | 89.00% | 1012.70 hPa
  • 16-08-2018 00:00:00 | 20.00°C | Sur |6.00 km/h | 89.00% | 1012.60 hPa
  • 15-08-2018 23:00:00 | 20.30°C | Sudoeste |5.00 km/h | 88.00% | 1012.70 hPa
  • 15-08-2018 22:00:00 | 20.90°C | Este |5.00 km/h | 88.00% | 1012.50 hPa
  • 15-08-2018 21:00:00 | 21.30°C | Este |11.00 km/h | 86.00% | 1012.30 hPa
  • 15-08-2018 20:00:00 | 21.60°C | Este |20.00 km/h | 86.00% | 1012.30 hPa
  • 15-08-2018 19:00:00 | 21.60°C | Este |27.00 km/h | 85.00% | 1012.20 hPa
  • 15-08-2018 18:00:00 | 21.90°C | Este |26.00 km/h | 82.00% | 1012.80 hPa
  • 15-08-2018 17:00:00 | 22.40°C | Este |24.00 km/h | 82.00% | 1013.20 hPa
  • 15-08-2018 16:00:00 | 22.40°C | Nordeste |25.00 km/h | 79.00% | 1013.70 hPa
  • 15-08-2018 15:00:00 | 22.40°C | Este |28.00 km/h | 79.00% | 1014.10 hPa
  • 15-08-2018 14:00:00 | 22.60°C | Este |31.00 km/h | 76.00% | 1014.30 hPa
  • 15-08-2018 13:00:00 | 22.90°C | Nordeste |24.00 km/h | 75.00% | 1014.70 hPa
  • 15-08-2018 12:00:00 | 22.80°C | Este |22.00 km/h | 71.00% | 1014.70 hPa
  • 15-08-2018 11:00:00 | 22.40°C | Este |17.00 km/h | 69.00% | 1015.10 hPa
  • 15-08-2018 10:00:00 | 22.50°C | Este |10.00 km/h | 69.00% | 1015.60 hPa
  • 15-08-2018 09:00:00 | 18.10°C | Sur |13.00 km/h | 82.00% | 1015.80 hPa
  • 15-08-2018 08:00:00 | 19.20°C | Sudeste |12.00 km/h | 81.00% | 1015.90 hPa
  • 15-08-2018 07:00:00 | 18.10°C | Sudeste |10.00 km/h | 86.00% | 1016.00 hPa
  • 15-08-2018 06:00:00 | 17.90°C | Sudeste |10.00 km/h | 85.00% | 1016.20 hPa
  • 15-08-2018 05:00:00 | 16.80°C | Sur |11.00 km/h | 88.00% | 1016.70 hPa
  • 15-08-2018 04:00:00 | 17.10°C | Sudeste |3.00 km/h | 89.00% | 1017.20 hPa
  • 15-08-2018 03:00:00 | 16.90°C | Sur |11.00 km/h | 89.00% | 1017.60 hPa